Time;durP1;ratioP1;P1;durP2;ratioP2;P2;SDS_P1;SDS_P2;PMS_P1;PMS_P2;Temp;Humidity;BMP_temperature;BMP_pressure;BME280_temperature;BME280_humidity;BME280_pressure;Samples;Min_cycle;Max_cycle;Signal;HPM_P1;HPM_P2
2021/10/06 00:01:57;;;;;;;3.40;0.63;;;;;;;14.78;66.66;100348.06;4999624;28;20543;-88
2021/10/06 00:04:22;;;;;;;5.13;0.90;;;;;;;14.74;66.94;100364.31;4993967;28;20030;-88
2021/10/06 00:06:47;;;;;;;3.80;0.80;;;;;;;14.81;66.75;100352.22;4995207;28;20034;-88
2021/10/06 00:09:13;;;;;;;6.68;1.25;;;;;;;14.72;66.87;100360.97;4993579;28;20021;-88
2021/10/06 00:11:40;;;;;;;6.00;0.85;;;;;;;14.62;66.92;100359.09;4992406;28;20031;-88
2021/10/06 00:14:07;;;;;;;3.38;0.90;;;;;;;14.44;67.66;100371.22;4994045;28;20031;-88
2021/10/06 00:16:32;;;;;;;8.75;1.40;;;;;;;14.41;68.35;100366.19;5004183;28;20104;-88
2021/10/06 00:18:58;;;;;;;10.38;1.33;;;;;;;14.51;68.06;100366.25;4992249;28;20556;-88
2021/10/06 00:21:24;;;;;;;5.13;1.00;;;;;;;14.50;67.77;100373.34;4992386;28;20033;-88
2021/10/06 00:23:49;;;;;;;6.43;1.08;;;;;;;14.56;67.46;100370.22;4992187;28;20458;-88
2021/10/06 00:26:15;;;;;;;6.47;1.20;;;;;;;14.44;67.68;100372.06;4997094;28;20447;-88
2021/10/06 00:28:40;;;;;;;6.22;0.95;;;;;;;14.56;67.46;100380.78;5000777;28;20050;-88
2021/10/06 00:31:05;;;;;;;8.18;1.63;;;;;;;14.45;68.18;100383.44;4995457;28;20058;-88
2021/10/06 00:33:31;;;;;;;16.27;1.60;;;;;;;14.36;68.32;100398.28;5007340;28;20023;-88
2021/10/06 00:35:56;;;;;;;9.23;1.63;;;;;;;14.40;68.66;100394.41;4997835;28;20073;-88
2021/10/06 00:38:22;;;;;;;7.75;1.17;;;;;;;14.33;68.79;100400.34;5007288;28;20026;-88
2021/10/06 00:40:49;;;;;;;9.90;1.35;;;;;;;14.48;68.37;100394.59;5011432;28;20042;-89
2021/10/06 00:43:14;;;;;;;10.25;1.70;;;;;;;14.28;69.26;100398.94;5010066;28;20065;-88
2021/10/06 00:45:40;;;;;;;7.28;1.15;;;;;;;14.42;68.19;100403.06;5007586;28;20061;-88
2021/10/06 00:48:05;;;;;;;5.50;1.25;;;;;;;14.63;66.92;100403.09;4991993;28;20041;-88
2021/10/06 00:50:31;;;;;;;7.93;1.05;;;;;;;14.78;66.98;100419.41;5004902;28;20065;-88
2021/10/06 00:52:56;;;;;;;8.32;1.40;;;;;;;14.67;67.07;100415.06;5011522;28;20030;-88
2021/10/06 00:55:22;;;;;;;4.32;1.00;;;;;;;14.72;66.65;100427.03;5000573;28;20039;-88
2021/10/06 00:57:47;;;;;;;9.73;1.35;;;;;;;14.52;67.41;100426.88;5011188;28;20033;-88
2021/10/06 01:00:13;;;;;;;6.18;1.40;;;;;;;14.39;68.31;100436.81;4998969;28;20022;-88
2021/10/06 01:02:38;;;;;;;7.32;1.38;;;;;;;14.47;67.58;100439.63;4993795;28;20504;-88
2021/10/06 01:05:06;;;;;;;11.50;1.50;;;;;;;14.59;67.32;100437.81;5001065;28;20068;-88
2021/10/06 01:07:33;;;;;;;5.65;1.35;;;;;;;14.77;66.75;100440.69;5011084;28;20383;-88
2021/10/06 01:10:00;;;;;;;13.85;2.00;;;;;;;14.63;67.14;100441.84;5001933;28;20064;-88
2021/10/06 01:12:26;;;;;;;7.50;1.35;;;;;;;14.68;66.76;100437.88;5010767;28;20033;-88
2021/10/06 01:14:51;;;;;;;11.27;1.88;;;;;;;14.64;67.05;100447.03;5002787;28;20441;-88
2021/10/06 01:17:17;;;;;;;7.57;1.20;;;;;;;14.52;67.06;100453.31;4992455;28;20030;-88
2021/10/06 01:19:42;;;;;;;9.20;1.17;;;;;;;14.62;66.49;100454.25;4997964;28;20052;-89
2021/10/06 01:22:08;;;;;;;12.07;1.63;;;;;;;14.22;68.66;100452.25;5009194;28;20396;-88
2021/10/06 01:24:33;;;;;;;8.13;1.20;;;;;;;14.46;67.26;100453.81;5003624;28;20097;-88
2021/10/06 01:27:00;;;;;;;7.38;1.38;;;;;;;14.00;68.92;100442.63;4997592;28;20425;-88
2021/10/06 01:29:29;;;;;;;4.95;0.73;;;;;;;13.96;69.25;100466.75;4997718;28;20026;-88
2021/10/06 01:31:54;;;;;;;10.90;1.25;;;;;;;13.92;69.84;100460.03;5004997;28;20033;-88
2021/10/06 01:34:22;;;;;;;8.32;1.13;;;;;;;13.70;69.56;100459.13;5008938;28;20027;-88
2021/10/06 01:36:51;;;;;;;6.57;0.90;;;;;;;13.85;69.06;100481.66;4991782;28;20041;-88
2021/10/06 01:39:18;;;;;;;6.40;1.70;;;;;;;13.82;70.18;100487.19;4992266;28;20119;-88
2021/10/06 01:41:44;;;;;;;6.70;1.10;;;;;;;13.61;70.56;100494.19;4997138;28;20029;-88
2021/10/06 01:44:14;;;;;;;7.22;1.13;;;;;;;13.74;70.53;100500.13;4991655;28;20042;-88
2021/10/06 01:46:40;;;;;;;7.57;1.70;;;;;;;13.59;70.65;100490.81;5010480;28;20079;-88
2021/10/06 01:49:05;;;;;;;8.52;1.58;;;;;;;13.75;70.79;100493.91;5000422;28;20109;-88
2021/10/06 01:51:30;;;;;;;8.95;1.20;;;;;;;13.84;69.79;100492.31;5001374;28;20361;-88
2021/10/06 01:53:56;;;;;;;3.88;1.15;;;;;;;13.88;69.68;100491.97;5008523;28;20033;-88
2021/10/06 01:56:21;;;;;;;8.68;2.15;;;;;;;13.87;69.62;100490.28;4992401;28;20086;-88
2021/10/06 01:58:47;;;;;;;7.70;1.30;;;;;;;13.84;69.56;100487.91;5001515;28;20029;-88
2021/10/06 02:01:13;;;;;;;5.40;1.15;;;;;;;13.89;69.64;100509.47;4999806;28;20030;-88
2021/10/06 02:03:38;;;;;;;9.63;1.33;;;;;;;13.78;69.88;100509.47;5010109;28;20540;-88
2021/10/06 02:06:04;;;;;;;13.43;1.67;;;;;;;13.78;69.99;100506.00;4992916;28;20079;-88
2021/10/06 02:08:30;;;;;;;9.48;1.67;;;;;;;13.78;69.80;100512.13;4998539;28;20075;-88
2021/10/06 02:10:55;;;;;;;8.00;1.10;;;;;;;13.73;69.56;100493.19;4999453;28;20435;-88
2021/10/06 02:13:20;;;;;;;8.48;1.08;;;;;;;13.77;70.06;100505.19;4999815;28;20026;-88
2021/10/06 02:15:47;;;;;;;11.90;1.55;;;;;;;13.84;69.56;100510.78;5008778;28;20101;-88
2021/10/06 02:18:13;;;;;;;9.85;1.77;;;;;;;13.75;69.94;100511.56;5008823;28;20061;-88
2021/10/06 02:20:39;;;;;;;5.55;0.88;;;;;;;13.81;69.73;100521.63;4993204;28;20125;-88
2021/10/06 02:23:04;;;;;;;7.28;1.27;;;;;;;13.93;69.40;100515.34;4991395;28;20337;-88
2021/10/06 02:25:30;;;;;;;3.20;0.80;;;;;;;13.99;69.65;100514.03;4999547;28;20068;-88
2021/10/06 02:27:55;;;;;;;9.32;1.42;;;;;;;13.77;69.80;100513.09;4996586;28;20030;-88
2021/10/06 02:30:21;;;;;;;7.78;2.17;;;;;;;13.67;70.26;100505.06;5008166;28;20124;-88
2021/10/06 02:32:46;;;;;;;6.45;1.25;;;;;;;13.82;69.98;100512.72;5009935;28;20357;-88
2021/10/06 02:35:12;;;;;;;6.55;1.15;;;;;;;13.80;69.96;100515.50;4996929;28;20022;-88
2021/10/06 02:37:39;;;;;;;6.35;1.23;;;;;;;13.82;69.31;100510.94;4990323;28;20069;-88
2021/10/06 02:40:06;;;;;;;4.70;0.95;;;;;;;13.82;69.09;100513.59;4999945;28;20124;-88
2021/10/06 02:42:32;;;;;;;3.38;1.00;;;;;;;13.80;69.11;100510.22;4996942;28;20026;-88
2021/10/06 02:44:57;;;;;;;3.13;0.85;;;;;;;13.78;69.90;100517.41;4998653;28;20049;-88
2021/10/06 02:47:22;;;;;;;6.70;1.00;;;;;;;13.39;70.53;100509.06;4991052;28;20060;-88
2021/10/06 02:49:48;;;;;;;10.68;1.45;;;;;;;13.70;70.07;100514.53;4989951;28;20030;-89
2021/10/06 02:52:13;;;;;;;5.28;1.10;;;;;;;13.76;69.70;100518.50;4990088;28;20018;-88
2021/10/06 02:54:39;;;;;;;6.35;1.10;;;;;;;13.66;69.58;100519.25;5004108;28;20507;-88
2021/10/06 02:57:04;;;;;;;8.57;1.48;;;;;;;13.78;69.49;100521.84;5009390;28;20495;-88
2021/10/06 02:59:33;;;;;;;9.32;1.08;;;;;;;13.51;70.38;100509.03;4990024;28;20053;-88
2021/10/06 03:01:58;;;;;;;7.07;1.30;;;;;;;13.66;69.52;100532.44;4991811;28;20030;-88
2021/10/06 03:04:25;;;;;;;8.40;1.60;;;;;;;13.55;70.06;100531.59;4989682;28;20491;-88
2021/10/06 03:06:51;;;;;;;8.00;1.27;;;;;;;13.64;69.54;100521.13;4989133;28;20396;-88
2021/10/06 03:09:16;;;;;;;8.77;1.20;;;;;;;13.56;70.33;100522.72;4990044;28;20034;-88
2021/10/06 03:11:41;;;;;;;8.45;1.60;;;;;;;13.55;69.54;100521.03;4989844;28;20031;-88
2021/10/06 03:14:08;;;;;;;4.18;0.70;;;;;;;13.72;69.66;100524.97;4989722;28;20109;-88
2021/10/06 03:16:33;;;;;;;5.65;1.00;;;;;;;13.44;70.17;100525.34;4989741;28;20026;-88
2021/10/06 03:18:59;;;;;;;6.88;1.00;;;;;;;13.59;70.04;100544.41;5003508;28;20396;-88
2021/10/06 03:21:24;;;;;;;6.75;1.10;;;;;;;13.57;69.76;100534.97;5009339;28;20156;-88
2021/10/06 03:23:50;;;;;;;4.55;0.77;;;;;;;13.75;68.95;100540.59;4994129;28;20034;-88
2021/10/06 03:26:15;;;;;;;6.88;1.23;;;;;;;13.71;69.34;100529.41;4989617;28;20045;-88
2021/10/06 03:28:40;;;;;;;3.88;1.02;;;;;;;13.58;69.66;100541.91;4999702;28;20109;-88
2021/10/06 03:31:06;;;;;;;3.67;1.00;;;;;;;13.62;69.13;100544.16;4989504;28;20026;-88
2021/10/06 03:33:31;;;;;;;4.45;1.27;;;;;;;13.73;68.86;100543.34;4989367;28;20083;-88
2021/10/06 03:35:57;;;;;;;7.00;0.88;;;;;;;13.69;68.45;100542.72;4993971;28;20430;-88
2021/10/06 03:38:22;;;;;;;4.88;0.90;;;;;;;13.30;70.32;100544.03;5005412;28;20030;-88
2021/10/06 03:40:48;;;;;;;9.35;1.10;;;;;;;13.40;69.70;100552.91;5008799;28;20025;-88
2021/10/06 03:43:13;;;;;;;9.82;1.08;;;;;;;13.53;68.87;100544.06;5004219;28;20031;-88
2021/10/06 03:45:39;;;;;;;3.45;1.17;;;;;;;13.66;69.04;100556.19;4988137;28;20034;-88
2021/10/06 03:48:04;;;;;;;6.10;0.98;;;;;;;13.56;69.28;100549.91;4989399;28;20023;-88
2021/10/06 03:50:30;;;;;;;6.43;1.98;;;;;;;13.67;68.67;100551.75;4989229;28;20096;-88
2021/10/06 03:52:55;;;;;;;7.35;1.05;;;;;;;13.53;68.79;100567.81;4989231;28;20026;-88
2021/10/06 03:55:21;;;;;;;7.30;1.13;;;;;;;13.53;69.20;100567.81;5006447;28;20108;-88
2021/10/06 03:57:46;;;;;;;5.03;0.93;;;;;;;13.58;68.87;100560.38;5006721;28;20038;-88
2021/10/06 04:00:12;;;;;;;3.60;0.88;;;;;;;13.67;68.63;100562.28;4993429;28;20033;-88
2021/10/06 04:02:38;;;;;;;7.57;1.00;;;;;;;13.58;68.41;100565.63;4989367;28;20482;-88
2021/10/06 04:05:06;;;;;;;5.72;0.70;;;;;;;13.51;68.89;100561.78;5003193;28;20527;-88
2021/10/06 04:07:31;;;;;;;11.25;1.35;;;;;;;13.29;69.66;100568.72;5005280;28;20066;-88
2021/10/06 04:09:57;;;;;;;8.50;0.93;;;;;;;13.41;68.72;100567.78;5008481;28;20057;-88
2021/10/06 04:12:22;;;;;;;9.95;1.08;;;;;;;13.40;68.41;100576.66;5008649;28;20442;-88
2021/10/06 04:14:48;;;;;;;6.38;1.15;;;;;;;13.36;69.15;100579.66;5008598;28;20026;-88
2021/10/06 04:17:13;;;;;;;8.45;1.20;;;;;;;13.01;69.46;100586.63;5009064;28;20025;-87
2021/10/06 04:19:38;;;;;;;3.67;0.93;;;;;;;13.26;69.56;100584.75;5007774;28;20498;-88
2021/10/06 04:22:04;;;;;;;11.10;1.80;;;;;;;13.23;69.67;100582.34;5011747;28;20029;-88
2021/10/06 04:24:29;;;;;;;8.93;1.13;;;;;;;13.32;69.21;100589.59;5011857;28;20026;-88
2021/10/06 04:26:54;;;;;;;4.45;0.80;;;;;;;13.34;68.76;100595.59;5011646;28;20070;-88
2021/10/06 04:29:20;;;;;;;7.80;0.80;;;;;;;13.33;69.13;100600.97;4998876;28;20105;-88
2021/10/06 04:31:45;;;;;;;4.05;0.93;;;;;;;13.24;69.00;100603.31;4992113;28;20111;-88
2021/10/06 04:34:10;;;;;;;7.30;1.67;;;;;;;13.28;68.63;100612.69;5005906;28;20037;-88
2021/10/06 04:36:36;;;;;;;6.20;0.80;;;;;;;13.20;69.20;100611.59;5011312;28;20091;-88
2021/10/06 04:39:01;;;;;;;5.70;0.90;;;;;;;13.24;69.82;100626.22;4992752;28;20057;-88
2021/10/06 04:41:26;;;;;;;4.78;0.85;;;;;;;13.22;69.28;100622.88;4992074;28;20037;-87
2021/10/06 04:43:52;;;;;;;5.05;1.00;;;;;;;13.28;69.46;100619.75;4992743;28;20045;-88
2021/10/06 04:46:19;;;;;;;3.35;1.08;;;;;;;13.26;69.69;100603.22;4992689;28;20027;-89
2021/10/06 04:48:45;;;;;;;3.78;1.17;;;;;;;13.13;69.09;100616.50;4998907;28;20036;-88
2021/10/06 04:51:11;;;;;;;5.30;0.90;;;;;;;13.14;69.55;100626.06;5011672;28;20030;-88
2021/10/06 04:53:36;;;;;;;9.73;1.52;;;;;;;13.12;69.95;100629.78;5007513;28;20025;-89
2021/10/06 04:56:02;;;;;;;3.25;0.73;;;;;;;12.94;69.94;100632.84;5005021;28;20027;-89
2021/10/06 04:58:27;;;;;;;5.55;0.85;;;;;;;12.95;69.86;100631.88;4995354;28;20030;-88
2021/10/06 05:00:53;;;;;;;1.15;0.60;;;;;;;13.01;70.03;100627.94;4997958;28;20026;-89
2021/10/06 05:03:18;;;;;;;4.78;0.85;;;;;;;12.97;69.66;100629.13;4992589;28;20420;-89
2021/10/06 05:05:44;;;;;;;5.55;0.88;;;;;;;12.92;69.99;100644.47;4994774;28;20033;-91
2021/10/06 05:08:10;;;;;;;5.97;0.90;;;;;;;12.98;70.43;100636.09;4998903;28;20018;-91
2021/10/06 05:10:35;;;;;;;8.30;1.05;;;;;;;13.01;70.26;100634.09;4992665;28;20035;-90
2021/10/06 05:13:01;;;;;;;5.35;0.70;;;;;;;12.98;70.12;100649.28;4996319;28;20026;-90
2021/10/06 05:15:27;;;;;;;4.72;0.75;;;;;;;12.95;69.81;100666.13;4992733;28;20026;-89
2021/10/06 05:17:52;;;;;;;8.55;1.02;;;;;;;12.79;70.66;100665.59;4991364;28;20022;-89
2021/10/06 05:20:18;;;;;;;6.18;1.30;;;;;;;12.68;71.28;100675.13;4990155;28;20034;-89
2021/10/06 05:22:43;;;;;;;5.85;1.27;;;;;;;12.80;70.83;100667.28;4997630;28;20034;-90
2021/10/06 05:25:08;;;;;;;7.00;1.75;;;;;;;12.73;71.41;100673.94;4991287;28;20027;-90
2021/10/06 05:27:34;;;;;;;7.95;1.05;;;;;;;12.88;71.00;100691.28;4990761;28;20023;-89
2021/10/06 05:30:03;;;;;;;8.38;1.38;;;;;;;12.81;71.69;100682.13;4993074;28;20027;-89
2021/10/06 05:32:28;;;;;;;8.38;1.00;;;;;;;12.93;71.18;100672.47;4999082;28;20036;-90
2021/10/06 05:34:54;;;;;;;8.15;1.38;;;;;;;12.77;71.66;100670.13;5010416;28;20021;-90
2021/10/06 05:37:19;;;;;;;3.70;1.08;;;;;;;13.09;71.01;100680.94;5010732;28;20026;-90
2021/10/06 05:39:44;;;;;;;7.50;1.48;;;;;;;12.99;70.96;100687.84;5009198;28;20074;-89
2021/10/06 05:42:10;;;;;;;8.55;1.63;;;;;;;12.99;70.76;100685.22;5006302;28;20036;-90
2021/10/06 05:44:35;;;;;;;5.20;1.33;;;;;;;13.02;70.80;100698.19;5010442;28;20030;-89
2021/10/06 05:47:01;;;;;;;5.28;0.90;;;;;;;12.98;70.67;100716.00;5010449;28;20037;-89
2021/10/06 05:49:27;;;;;;;6.63;0.90;;;;;;;12.97;70.49;100716.09;5010676;28;20129;-89
2021/10/06 05:51:52;;;;;;;5.05;1.17;;;;;;;12.92;70.81;100723.53;5007931;28;20171;-89
2021/10/06 05:54:17;;;;;;;5.38;0.90;;;;;;;12.83;71.35;100711.84;4990893;28;20037;-89
2021/10/06 05:56:43;;;;;;;4.28;0.85;;;;;;;12.89;71.07;100716.66;4990853;28;20035;-89
2021/10/06 05:59:08;;;;;;;5.70;1.05;;;;;;;12.82;71.20;100718.91;4990729;28;20124;-88
2021/10/06 06:01:34;;;;;;;2.20;0.75;;;;;;;12.81;70.98;100717.22;4991558;28;20388;-89
2021/10/06 06:03:59;;;;;;;4.30;0.82;;;;;;;12.66;70.97;100710.44;4990810;28;20381;-89
2021/10/06 06:06:24;;;;;;;7.85;1.48;;;;;;;12.78;70.92;100709.56;4990711;28;20376;-88
2021/10/06 06:08:50;;;;;;;9.73;1.17;;;;;;;12.74;71.08;100709.88;4990753;28;20030;-88
2021/10/06 06:11:15;;;;;;;6.63;1.40;;;;;;;12.74;71.69;100720.41;5001557;28;20026;-88
2021/10/06 06:13:41;;;;;;;5.30;1.48;;;;;;;12.76;71.71;100729.91;5010080;28;20510;-89
2021/10/06 06:16:06;;;;;;;7.70;1.85;;;;;;;12.80;71.22;100730.53;5010116;28;20018;-89
2021/10/06 06:18:32;;;;;;;6.28;1.05;;;;;;;12.68;71.89;100742.78;5009980;28;20476;-89
2021/10/06 06:20:57;;;;;;;10.10;1.05;;;;;;;12.88;71.28;100749.25;5001132;28;20092;-89
2021/10/06 06:23:23;;;;;;;7.72;0.85;;;;;;;12.95;70.64;100753.13;4990301;28;20030;-88
2021/10/06 06:25:50;;;;;;;8.63;1.08;;;;;;;12.93;71.27;100773.47;4990285;28;20558;-89
2021/10/06 06:28:15;;;;;;;4.32;0.77;;;;;;;12.96;70.91;100772.44;4990487;28;20026;-89
2021/10/06 06:30:41;;;;;;;5.97;1.42;;;;;;;12.98;70.75;100781.91;4996321;28;20074;-89
2021/10/06 06:33:06;;;;;;;6.78;1.13;;;;;;;12.95;70.23;100787.38;5009956;28;20287;-89
2021/10/06 06:35:32;;;;;;;9.75;1.20;;;;;;;12.94;70.79;100790.97;5009959;28;20022;-89
2021/10/06 06:37:57;;;;;;;3.65;0.88;;;;;;;12.89;70.54;100787.81;5009801;28;20026;-89
2021/10/06 06:40:22;;;;;;;6.53;1.42;;;;;;;12.89;71.01;100796.59;5005079;28;20554;-89
2021/10/06 06:42:48;;;;;;;8.05;1.35;;;;;;;12.95;70.88;100786.53;4990659;28;20099;-89
2021/10/06 06:45:13;;;;;;;6.57;1.05;;;;;;;12.99;71.34;100791.47;4990169;28;20022;-89
2021/10/06 06:47:41;;;;;;;13.88;2.20;;;;;;;13.05;70.68;100804.25;4990307;28;20054;-89
2021/10/06 06:50:07;;;;;;;8.40;1.02;;;;;;;13.13;70.44;100816.00;4990866;28;20019;-89
2021/10/06 06:52:33;;;;;;;9.80;1.48;;;;;;;12.85;71.61;100818.81;5009599;28;20461;-88
2021/10/06 06:54:58;;;;;;;3.75;0.98;;;;;;;13.14;70.50;100830.88;5009607;28;20030;-88
2021/10/06 06:57:25;;;;;;;6.95;0.90;;;;;;;13.16;70.72;100832.44;5009884;28;20026;-88
2021/10/06 06:59:50;;;;;;;7.68;1.00;;;;;;;13.18;69.96;100824.44;5008466;28;20057;-89
2021/10/06 07:02:15;;;;;;;8.35;1.30;;;;;;;13.13;69.94;100821.28;4990809;28;20468;-89
2021/10/06 07:04:41;;;;;;;1.65;0.73;;;;;;;13.23;70.39;100824.94;5017828;28;20045;-89
2021/10/06 07:07:06;;;;;;;4.95;1.02;;;;;;;13.18;70.42;100827.06;4989582;28;20396;-89
2021/10/06 07:09:35;;;;;;;3.05;0.80;;;;;;;13.28;70.24;100830.72;4989732;28;20521;-89
2021/10/06 07:12:00;;;;;;;3.00;0.82;;;;;;;13.21;70.41;100832.97;4989822;28;20022;-88
2021/10/06 07:14:26;;;;;;;8.85;0.90;;;;;;;13.51;69.61;100828.22;4990356;28;20118;-88
2021/10/06 07:16:51;;;;;;;6.85;0.80;;;;;;;13.59;69.81;100829.34;5029970;28;20047;-89
2021/10/06 07:19:16;;;;;;;5.38;0.90;;;;;;;13.70;69.54;100831.19;5112213;28;20022;-89
2021/10/06 07:21:45;;;;;;;4.53;1.00;;;;;;;13.98;69.72;100834.41;5067380;28;20018;-89
2021/10/06 07:24:12;;;;;;;7.03;1.10;;;;;;;14.20;69.68;100836.28;5011115;28;20519;-89
2021/10/06 07:26:38;;;;;;;4.60;1.02;;;;;;;14.99;68.21;100847.75;5007174;28;20361;-89
2021/10/06 07:29:03;;;;;;;4.68;0.63;;;;;;;15.70;65.81;100851.75;5001063;28;20091;-88
2021/10/06 07:31:29;;;;;;;2.97;1.20;;;;;;;15.72;64.21;100847.19;5003354;28;20022;-88
2021/10/06 07:33:57;;;;;;;6.88;1.00;;;;;;;16.43;62.41;100856.22;5004865;28;20105;-88
2021/10/06 07:36:24;;;;;;;8.50;1.10;;;;;;;17.17;60.46;100844.50;5008021;28;20029;-88
2021/10/06 07:38:50;;;;;;;5.95;0.90;;;;;;;17.43;60.25;100851.97;5001891;28;20023;-88
2021/10/06 07:41:15;;;;;;;7.32;0.80;;;;;;;17.23;58.93;100864.38;5000912;28;20124;-88
2021/10/06 07:43:40;;;;;;;7.57;1.08;;;;;;;18.10;57.06;100866.25;5004970;28;20042;-88
2021/10/06 07:46:06;;;;;;;2.75;0.57;;;;;;;18.84;54.76;100875.34;5010619;28;20112;-88
2021/10/06 07:48:31;;;;;;;8.52;1.15;;;;;;;18.86;54.29;100865.38;5008090;28;20465;-89
2021/10/06 07:50:56;;;;;;;3.17;0.70;;;;;;;19.08;53.64;100884.59;5013960;28;20034;-88
2021/10/06 07:53:22;;;;;;;5.63;0.90;;;;;;;19.14;53.17;100882.19;5011639;28;20057;-89
2021/10/06 07:55:47;;;;;;;6.50;0.70;;;;;;;19.87;51.42;100886.63;5031028;28;20037;-88
2021/10/06 07:58:13;;;;;;;6.65;0.80;;;;;;;20.78;49.76;100890.78;5011826;28;20025;-87
2021/10/06 08:00:38;;;;;;;10.20;1.10;;;;;;;21.37;48.35;100901.53;5032493;28;20116;-87
2021/10/06 08:03:03;;;;;;;3.30;0.75;;;;;;;21.92;48.04;100900.13;5021443;28;20379;-87
2021/10/06 08:05:29;;;;;;;6.50;1.13;;;;;;;22.75;47.31;100913.28;5029866;28;20021;-89
2021/10/06 08:07:54;;;;;;;5.85;1.10;;;;;;;22.07;45.10;100913.69;5026887;28;20143;-89
2021/10/06 08:10:20;;;;;;;4.72;0.73;;;;;;;22.55;45.22;100922.69;5029407;28;20483;-89
2021/10/06 08:12:45;;;;;;;6.18;0.82;;;;;;;23.04;45.90;100927.94;5018368;28;20029;-89
2021/10/06 08:15:11;;;;;;;2.80;0.65;;;;;;;23.94;43.45;100937.38;5011207;28;20026;-89
2021/10/06 08:17:36;;;;;;;4.05;1.20;;;;;;;24.19;41.15;100926.41;5010875;28;20030;-89
2021/10/06 08:20:03;;;;;;;3.30;0.50;;;;;;;24.79;41.56;100927.41;5031346;28;20025;-89
2021/10/06 08:22:28;;;;;;;5.75;0.52;;;;;;;25.66;40.54;100935.53;5029294;28;20060;-89
2021/10/06 08:24:54;;;;;;;3.40;0.85;;;;;;;26.61;38.46;100929.97;5029359;28;20463;-89
2021/10/06 08:27:19;;;;;;;5.57;0.70;;;;;;;25.35;38.82;100934.97;5029346;28;20498;-90
2021/10/06 08:29:44;;;;;;;3.55;0.88;;;;;;;25.95;37.70;100944.53;5029511;28;20029;-89
2021/10/06 08:32:10;;;;;;;3.70;0.93;;;;;;;28.15;35.78;100944.88;5028164;28;20029;-90
2021/10/06 08:34:35;;;;;;;2.85;0.57;;;;;;;29.12;34.09;100939.78;5016250;28;20491;-90
2021/10/06 08:37:01;;;;;;;4.80;0.80;;;;;;;29.99;32.86;100935.56;5008026;28;20026;-90
2021/10/06 08:39:26;;;;;;;3.65;0.57;;;;;;;30.38;31.24;100939.03;5012538;28;20021;-90
2021/10/06 08:41:52;;;;;;;3.03;0.60;;;;;;;30.62;32.32;100952.75;5029009;28;20132;-90
2021/10/06 08:44:30;;;;;;;8.40;0.80;;;;;;;29.65;32.40;100948.47;5016381;28;20026;-88
2021/10/06 08:46:55;;;;;;;3.80;0.63;;;;;;;30.58;31.20;100948.84;5009393;28;20075;-89
2021/10/06 08:49:21;;;;;;;2.63;0.43;;;;;;;30.03;30.69;100955.72;5010750;28;20433;-88
2021/10/06 08:51:46;;;;;;;5.00;0.60;;;;;;;29.42;30.77;100953.59;5009043;28;20026;-88
2021/10/06 08:54:11;;;;;;;5.38;0.70;;;;;;;29.66;31.15;100947.44;5007438;28;20048;-88
2021/10/06 08:56:37;;;;;;;2.45;0.60;;;;;;;28.95;32.94;100961.00;5034818;28;20082;-88
2021/10/06 08:59:03;;;;;;;2.67;0.70;;;;;;;28.88;32.26;100955.63;5026444;28;20134;-89
2021/10/06 09:01:29;;;;;;;5.38;0.70;;;;;;;28.35;33.38;100967.31;5029057;28;20064;-89
2021/10/06 09:04:03;;;;;;;2.35;0.63;;;;;;;28.99;33.32;100970.34;5024936;28;20041;-88
2021/10/06 09:06:43;;;;;;;4.13;0.50;;;;;;;29.02;33.18;100968.06;5006980;28;20021;-88
2021/10/06 09:09:18;;;;;;;4.97;0.60;;;;;;;30.62;31.32;100960.88;5021273;28;20483;-88
2021/10/06 09:11:49;;;;;;;2.35;0.30;;;;;;;30.57;31.36;100974.28;5018306;28;20025;-89
2021/10/06 09:14:15;;;;;;;;;;;;;;;30.99;31.47;100974.50;5024820;28;20033;-88
2021/10/06 09:16:42;;;;;;;2.30;0.50;;;;;;;30.65;28.57;100976.72;5010220;28;19917;-88
2021/10/06 09:19:08;;;;;;;1.90;0.47;;;;;;;30.75;30.04;100987.88;5008521;28;20036;-88
2021/10/06 09:21:57;;;;;;;3.72;0.50;;;;;;;29.50;30.29;100995.78;5018374;28;20456;-90
2021/10/06 09:24:23;;;;;;;2.05;0.40;;;;;;;29.44;30.79;100995.63;5009234;28;20082;-89
2021/10/06 09:27:05;;;;;;;3.55;0.73;;;;;;;29.87;30.30;100994.16;5009218;28;20018;-89
2021/10/06 09:29:30;;;;;;;;;;;;;;;30.03;30.61;100996.34;5006419;28;20074;-89
2021/10/06 09:31:56;;;;;;;3.05;1.08;;;;;;;30.60;29.30;100998.22;5009020;28;19917;-89
2021/10/06 09:34:22;;;;;;;2.15;0.50;;;;;;;29.98;29.41;100995.38;5028494;28;20033;-89
2021/10/06 09:36:48;;;;;;;2.50;0.60;;;;;;;28.75;31.03;101002.41;5016576;28;20029;-89
2021/10/06 09:39:13;;;;;;;4.88;0.60;;;;;;;27.57;32.59;100992.06;5009798;28;20025;-89
2021/10/06 09:41:46;;;;;;;3.63;0.80;;;;;;;26.74;32.82;101002.81;5010048;28;20053;-88
2021/10/06 09:44:20;;;;;;;4.60;0.80;;;;;;;26.56;34.71;101000.56;5014624;28;20034;-88
2021/10/06 09:46:48;;;;;;;3.78;0.57;;;;;;;26.97;33.66;101005.22;5009473;28;20109;-90
2021/10/06 09:49:21;;;;;;;2.63;0.52;;;;;;;26.42;35.24;100998.78;5012553;28;20030;-90
2021/10/06 09:51:47;;;;;;;4.70;0.57;;;;;;;27.52;34.26;101005.31;5013874;28;20060;-90
2021/10/06 09:54:12;;;;;;;4.97;0.40;;;;;;;28.36;32.92;101001.41;5007713;28;20081;-90
2021/10/06 09:56:40;;;;;;;2.40;0.30;;;;;;;28.36;31.11;101006.78;5009022;28;20430;-89
2021/10/06 09:59:06;;;;;;;3.60;0.50;;;;;;;28.25;31.31;101008.22;5009704;28;20488;-91
2021/10/06 10:01:36;;;;;;;2.17;0.30;;;;;;;29.09;31.42;101008.63;5006120;28;20101;-90
2021/10/06 10:04:05;;;;;;;3.00;0.38;;;;;;;29.55;32.16;100998.69;5010581;28;20022;-91
2021/10/06 10:06:32;;;;;;;2.03;0.60;;;;;;;30.04;31.12;101006.13;5005401;28;20471;-89
2021/10/06 10:09:00;;;;;;;4.25;0.73;;;;;;;30.17;30.28;101012.50;5010330;28;20057;-91
2021/10/06 10:11:26;;;;;;;2.67;0.43;;;;;;;31.46;28.77;101004.66;5000390;28;20484;-92
2021/10/06 10:13:52;;;;;;;5.90;0.45;;;;;;;28.99;30.88;101011.75;4993457;28;20036;-90
2021/10/06 10:16:18;;;;;;;3.22;0.60;;;;;;;28.87;31.76;101018.81;5010329;28;20061;-91
2021/10/06 10:18:44;;;;;;;2.25;0.45;;;;;;;29.49;30.27;101024.72;5008669;28;20109;-91
2021/10/06 10:21:14;;;;;;;1.65;0.55;;;;;;;28.69;30.95;101027.56;4991467;28;20030;-90
2021/10/06 10:23:39;;;;;;;3.15;0.50;;;;;;;26.30;33.73;101023.53;5010324;28;20474;-91
2021/10/06 10:26:04;;;;;;;1.55;0.30;;;;;;;28.01;31.79;101025.84;5009716;28;20073;-90
2021/10/06 10:28:40;;;;;;;1.63;0.30;;;;;;;28.28;31.75;101025.91;4993687;28;20130;-94
2021/10/06 10:31:06;;;;;;;5.18;0.40;;;;;;;28.66;31.35;101017.22;4990775;28;20027;-90
2021/10/06 10:33:48;;;;;;;5.18;0.30;;;;;;;28.01;31.33;101025.84;5009273;28;20075;-90
2021/10/06 10:36:32;;;;;;;3.80;0.57;;;;;;;27.47;32.74;101024.81;5011412;28;20036;-95
2021/10/06 10:38:58;;;;;;;2.17;0.17;;;;;;;27.57;32.94;101035.22;4991084;28;20026;-96
2021/10/06 10:41:53;;;;;;;2.67;0.40;;;;;;;27.81;31.99;101027.63;4992265;28;20022;-96
2021/10/06 10:44:25;;;;;;;3.33;0.30;;;;;;;26.95;33.51;101033.41;5017437;28;20033;-91
2021/10/06 10:47:02;;;;;;;1.20;0.13;;;;;;;27.58;34.16;101031.50;5004472;28;20030;-92
2021/10/06 10:49:52;;;;;;;4.15;0.20;;;;;;;27.94;32.31;101038.47;4990462;28;20456;-93
2021/10/06 10:52:18;;;;;;;0.57;0.30;;;;;;;27.50;32.78;101037.88;4996785;28;20082;-90
2021/10/06 10:54:47;;;;;;;3.03;0.47;;;;;;;26.44;33.19;101056.81;5010046;28;20117;-90
2021/10/06 10:57:28;;;;;;;2.67;0.30;;;;;;;24.93;35.75;101053.63;5008201;28;20022;-91
2021/10/06 10:59:56;;;;;;;1.58;0.30;;;;;;;25.42;35.54;101052.31;5009431;28;20022;-89
2021/10/06 11:02:29;;;;;;;1.15;0.22;;;;;;;26.43;35.18;101049.75;5002867;28;20434;-89
2021/10/06 11:05:00;;;;;;;2.22;0.32;;;;;;;25.75;35.56;101054.59;4990035;28;20026;-90
2021/10/06 11:07:26;;;;;;;3.58;0.35;;;;;;;25.21;35.81;101044.94;4990901;28;20026;-91
2021/10/06 11:09:54;;;;;;;2.25;0.38;;;;;;;25.39;35.87;101046.47;4989799;28;20034;-93
2021/10/06 11:12:19;;;;;;;1.90;0.20;;;;;;;24.46;36.79;101054.66;4990859;28;20067;-91
2021/10/06 11:15:04;;;;;;;2.47;0.52;;;;;;;23.97;38.27;101057.69;4989876;28;20103;-93
2021/10/06 11:17:29;;;;;;;7.15;0.40;;;;;;;23.95;38.51;101057.03;5001131;28;20048;-90
2021/10/06 11:19:55;;;;;;;3.30;0.60;;;;;;;24.33;38.76;101057.16;5009365;28;20030;-91
2021/10/06 11:22:23;;;;;;;4.30;0.55;;;;;;;24.51;37.77;101059.56;4997834;28;20387;-90